Time;durP1;ratioP1;P1;durP2;ratioP2;P2;SDS_P1;SDS_P2;PMS_P1;PMS_P2;Temp;Humidity;BMP_temperature;BMP_pressure;BME280_temperature;BME280_humidity;BME280_pressure;Samples;Min_cycle;Max_cycle;Signal;HPM_P1;HPM_P2
2022/05/31 00:02:17;;;;;;;;;9.50;8.75;;;;;16.32;40.91;100893.50;6304959;22;45329;-76
2022/05/31 00:04:43;;;;;;;;;8.00;8.00;;;;;16.29;41.01;100894.44;6307514;22;45473;-76
2022/05/31 00:07:09;;;;;;;;;8.00;7.25;;;;;16.27;41.01;100893.59;6279828;22;45475;-76
2022/05/31 00:09:35;;;;;;;;;9.00;8.50;;;;;16.27;40.97;100890.06;6307864;22;45362;-76
2022/05/31 00:12:01;;;;;;;;;9.00;8.00;;;;;16.28;41.49;100884.75;6309716;22;45310;-76
2022/05/31 00:14:27;;;;;;;;;9.50;7.75;;;;;16.30;41.31;100892.66;6280780;22;45247;-76
2022/05/31 00:16:53;;;;;;;;;10.75;10.75;;;;;16.29;41.32;100885.59;6279121;22;45589;-76
2022/05/31 00:19:19;;;;;;;;;15.50;12.75;;;;;16.27;41.47;100882.09;6308747;22;46323;-76
2022/05/31 00:21:49;;;;;;;;;12.50;9.25;;;;;16.26;41.27;100875.94;6309233;22;45242;-76
2022/05/31 00:24:17;;;;;;;;;14.50;10.75;;;;;16.26;41.48;100881.25;6278396;22;45486;-76
2022/05/31 00:26:43;;;;;;;;;20.00;17.00;;;;;16.26;41.61;100877.72;6306123;22;45250;-77
2022/05/31 00:29:10;;;;;;;;;15.75;13.00;;;;;16.24;41.56;100877.75;6306124;22;45806;-76
2022/05/31 00:31:40;;;;;;;;;16.25;14.00;;;;;16.24;41.43;100880.41;6306634;22;45645;-76
2022/05/31 00:34:07;;;;;;;;;15.50;14.25;;;;;16.25;41.70;100875.94;6278068;22;45687;-76
2022/05/31 00:36:33;;;;;;;;;15.75;14.75;;;;;16.25;41.56;100879.50;6306180;22;45537;-76
2022/05/31 00:38:58;;;;;;;;;14.25;12.75;;;;;16.26;41.65;100889.22;6306349;22;45813;-76
2022/05/31 00:41:24;;;;;;;;;14.75;14.25;;;;;16.27;41.81;100887.41;6281172;22;45210;-76
2022/05/31 00:43:59;;;;;;;;;13.50;11.75;;;;;16.27;41.50;100888.28;6307224;22;45247;-76
2022/05/31 00:46:48;;;;;;;;;12.00;11.00;;;;;16.27;41.79;100880.31;6280971;22;45133;-76
2022/05/31 00:49:38;;;;;;;;;15.00;13.00;;;;;16.28;41.68;100874.09;6308852;22;46150;-76
2022/05/31 00:52:21;;;;;;;;;9.75;9.75;;;;;16.27;41.51;100875.00;6308602;22;45291;-76
2022/05/31 00:54:57;;;;;;;;;9.50;8.50;;;;;16.26;41.65;100878.59;6310301;22;45255;-76
2022/05/31 00:57:23;;;;;;;;;6.75;6.50;;;;;16.27;41.54;100880.31;6281054;22;45350;-75
2022/05/31 00:59:58;;;;;;;;;9.25;7.00;;;;;16.30;41.46;100879.38;6308718;22;45165;-76
2022/05/31 01:02:25;;;;;;;;;9.00;9.00;;;;;16.30;41.32;100882.03;6308238;22;45247;-76
2022/05/31 01:04:55;;;;;;;;;10.25;9.75;;;;;16.29;41.54;100870.53;6280809;22;45201;-77
2022/05/31 01:07:22;;;;;;;;;11.00;9.00;;;;;16.29;41.68;100886.47;6308996;22;45332;-76
2022/05/31 01:09:48;;;;;;;;;11.75;8.00;;;;;16.28;41.15;100876.75;6308288;22;46163;-76
2022/05/31 01:12:15;;;;;;;;;7.75;7.00;;;;;16.27;41.23;100880.31;6280630;22;45114;-76
2022/05/31 01:14:41;;;;;;;;;7.00;6.25;;;;;16.27;41.01;100887.41;6307988;22;45259;-76
2022/05/31 01:17:16;;;;;;;;;5.75;5.75;;;;;16.25;41.27;100876.84;6308953;22;45133;-77
2022/05/31 01:19:59;;;;;;;;;6.75;5.75;;;;;16.25;41.33;100873.28;6309561;22;45419;-76
2022/05/31 01:22:42;;;;;;;;;6.75;6.25;;;;;16.25;41.37;100878.59;6309901;22;45397;-76
2022/05/31 01:25:37;;;;;;;;;4.50;4.25;;;;;16.25;41.25;100875.94;6310247;22;45260;-76
2022/05/31 01:28:02;;;;;;;;;6.00;4.00;;;;;16.24;41.29;100877.75;6307863;22;45457;-76
2022/05/31 01:30:40;;;;;;;;;6.75;6.75;;;;;16.23;41.17;100878.66;6310112;22;46317;-76
2022/05/31 01:33:25;;;;;;;;;6.00;4.50;;;;;16.19;41.30;100881.44;6310195;22;45196;-76
2022/05/31 01:35:50;;;;;;;;;8.50;5.00;;;;;16.15;41.47;100877.97;6310466;22;45167;-76
2022/05/31 01:38:27;;;;;;;;;3.25;3.25;;;;;16.12;41.29;100870.09;6281769;22;45508;-76
2022/05/31 01:41:08;;;;;;;;;3.00;3.00;;;;;16.09;41.22;100870.16;6309699;22;46040;-76
2022/05/31 01:43:33;;;;;;;;;6.00;6.00;;;;;16.08;41.40;100871.94;6309808;22;45210;-76
2022/05/31 01:46:06;;;;;;;;;4.50;4.50;;;;;16.07;41.83;100874.63;6310378;22;45230;-76
2022/05/31 01:48:35;;;;;;;;;4.00;3.00;;;;;16.09;41.69;100875.44;6309831;22;45417;-76
2022/05/31 01:51:01;;;;;;;;;4.00;4.00;;;;;16.09;41.71;100879.00;6308010;22;47209;-76
2022/05/31 01:53:27;;;;;;;;;3.25;3.25;;;;;16.09;41.45;100871.03;6309837;22;45172;-76
2022/05/31 01:55:54;;;;;;;;;3.00;3.00;;;;;16.09;41.27;100872.78;6308373;22;45441;-76
2022/05/31 01:58:24;;;;;;;;;3.50;3.50;;;;;16.09;41.44;100864.81;6310015;22;45353;-76
2022/05/31 02:00:50;;;;;;;;;3.00;3.00;;;;;16.08;41.47;100871.94;6309442;22;45169;-76
2022/05/31 02:03:19;;;;;;;;;3.50;3.50;;;;;16.08;41.58;100871.06;6309932;22;45262;-76
2022/05/31 02:05:47;;;;;;;;;5.25;4.25;;;;;16.10;41.87;100879.88;6282323;22;45275;-76
2022/05/31 02:08:13;;;;;;;;;4.50;3.50;;;;;16.09;41.76;100873.69;6281669;22;45631;-76
2022/05/31 02:10:40;;;;;;;;;6.00;4.00;;;;;16.10;41.83;100878.09;6281713;22;48144;-77
2022/05/31 02:13:06;;;;;;;;;4.00;4.00;;;;;16.09;42.06;100873.69;6308195;22;45199;-76
2022/05/31 02:15:32;;;;;;;;;3.50;3.50;;;;;16.10;42.01;100870.13;6309892;22;45182;-77
2022/05/31 02:17:57;;;;;;;;;3.25;3.25;;;;;16.11;42.00;100876.28;6309702;22;45149;-76
2022/05/31 02:20:22;;;;;;;;;5.25;3.50;;;;;16.09;41.79;100876.34;6309722;22;45754;-76
2022/05/31 02:22:48;;;;;;;;;3.00;3.00;;;;;16.12;41.74;100882.47;6309454;22;45197;-76
2022/05/31 02:25:13;;;;;;;;;5.00;3.75;;;;;16.13;41.84;100881.59;6310348;22;45378;-76
2022/05/31 02:27:39;;;;;;;;;3.75;3.75;;;;;16.14;41.69;100880.66;6281949;22;45291;-76
2022/05/31 02:30:06;;;;;;;;;4.00;3.75;;;;;16.13;42.53;100877.13;6310049;22;45968;-76
2022/05/31 02:32:33;;;;;;;;;3.00;2.75;;;;;16.14;42.06;100886.84;6310125;22;45437;-76
2022/05/31 02:34:58;;;;;;;;;4.00;4.00;;;;;16.15;42.16;100875.31;6310757;22;45232;-76
2022/05/31 02:37:51;;;;;;;;;4.00;3.00;;;;;16.16;42.28;100879.72;6311888;22;45519;-76
2022/05/31 02:40:17;;;;;;;;;2.75;1.75;;;;;16.16;41.96;100869.09;6293778;22;46788;-77
2022/05/31 02:42:42;;;;;;;;;2.50;2.50;;;;;16.16;41.98;100878.84;6311409;22;45294;-76
2022/05/31 02:45:08;;;;;;;;;2.00;2.00;;;;;16.15;41.81;100875.31;6310402;22;45270;-76
2022/05/31 02:47:34;;;;;;;;;4.25;2.50;;;;;16.13;42.11;100877.13;6310999;22;45265;-75
2022/05/31 02:50:00;;;;;;;;;4.00;4.00;;;;;16.12;42.17;100869.19;6309845;22;45408;-76
2022/05/31 02:52:25;;;;;;;;;3.50;3.50;;;;;16.10;42.14;100871.91;6309800;22;45163;-76
2022/05/31 02:54:51;;;;;;;;;3.75;3.25;;;;;16.09;41.98;100872.78;6281930;22;45276;-76
2022/05/31 02:57:16;;;;;;;;;4.75;4.00;;;;;16.08;42.50;100879.91;6310314;22;45204;-76
2022/05/31 02:59:42;;;;;;;;;2.75;2.75;;;;;16.07;42.27;100883.47;6307816;22;47176;-76
2022/05/31 03:02:08;;;;;;;;;5.00;4.00;;;;;16.08;42.10;100887.00;6281002;22;45254;-76
2022/05/31 03:04:33;;;;;;;;;3.50;3.50;;;;;16.07;42.15;100888.78;6281654;22;45323;-76
2022/05/31 03:07:01;;;;;;;;;4.00;3.50;;;;;16.07;42.21;100880.81;6281724;22;45659;-76
2022/05/31 03:09:28;;;;;;;;;4.75;4.75;;;;;16.08;41.98;100887.88;6309684;22;45437;-76
2022/05/31 03:11:56;;;;;;;;;3.50;3.50;;;;;16.10;42.38;100888.72;6307601;22;45452;-76
2022/05/31 03:14:34;;;;;;;;;3.25;3.25;;;;;16.10;42.13;100886.06;6281705;22;45203;-76
2022/05/31 03:17:27;;;;;;;;;7.75;4.75;;;;;16.09;42.03;100873.69;6281510;22;45453;-76
2022/05/31 03:20:09;;;;;;;;;5.75;5.25;;;;;16.07;42.06;100870.19;6269303;22;47109;-76
2022/05/31 03:22:41;;;;;;;;;7.00;5.00;;;;;16.05;42.28;100864.03;6280814;22;45375;-76
2022/05/31 03:25:16;;;;;;;;;5.50;3.00;;;;;16.05;42.07;100869.34;6309952;22;45348;-76
2022/05/31 03:27:42;;;;;;;;;5.00;5.00;;;;;16.03;42.65;100873.81;6309688;22;45302;-76
2022/05/31 03:30:08;;;;;;;;;4.00;4.00;;;;;16.02;42.60;100872.09;6281427;22;46919;-76
2022/05/31 03:32:36;;;;;;;;;5.00;5.00;;;;;16.02;43.20;100876.53;6281620;22;45143;-76
2022/05/31 03:35:02;;;;;;;;;6.00;6.00;;;;;16.00;43.49;100871.25;6309691;22;45184;-76
2022/05/31 03:37:27;;;;;;;;;6.25;6.25;;;;;16.01;43.44;100880.09;6281368;22;45875;-76
2022/05/31 03:39:53;;;;;;;;;6.00;4.00;;;;;15.99;43.64;100881.91;6281149;22;46223;-76
2022/05/31 03:42:18;;;;;;;;;7.00;6.75;;;;;15.97;44.00;100881.94;6280575;22;45388;-76
2022/05/31 03:44:46;;;;;;;;;4.75;4.75;;;;;15.94;44.33;100873.19;6280050;22;45342;-76
2022/05/31 03:47:12;;;;;;;;;7.50;6.75;;;;;15.93;44.47;100882.03;6309260;22;45428;-76
2022/05/31 03:49:37;;;;;;;;;8.75;7.25;;;;;15.91;44.91;100883.88;6308946;22;46221;-76
2022/05/31 03:52:03;;;;;;;;;8.50;7.75;;;;;15.83;45.08;100879.63;6308894;22;45196;-76
2022/05/31 03:54:30;;;;;;;;;7.00;5.75;;;;;15.79;45.85;100874.41;6309485;22;45452;-76
2022/05/31 03:56:56;;;;;;;;;6.00;6.00;;;;;15.77;46.04;100882.44;6309501;22;45160;-77
2022/05/31 03:59:22;;;;;;;;;7.75;7.75;;;;;15.75;46.05;100883.38;6309134;22;45155;-76
2022/05/31 04:01:47;;;;;;;;;5.75;5.75;;;;;15.73;46.16;100877.22;6280354;22;45163;-76
2022/05/31 04:04:13;;;;;;;;;6.25;6.25;;;;;15.70;46.00;100878.16;6309424;22;45233;-76
2022/05/31 04:06:38;;;;;;;;;5.00;5.00;;;;;15.64;46.35;100880.94;6309201;22;45422;-76
2022/05/31 04:09:04;;;;;;;;;4.75;4.75;;;;;15.58;46.28;100881.94;6309271;22;46125;-76
2022/05/31 04:11:30;;;;;;;;;6.25;5.75;;;;;15.55;46.48;100883.75;6281079;22;45433;-77
2022/05/31 04:13:56;;;;;;;;;8.00;7.50;;;;;15.50;46.30;100883.00;6309411;22;45367;-76
2022/05/31 04:16:22;;;;;;;;;5.25;5.25;;;;;15.46;46.27;100873.38;6308801;22;45361;-76
2022/05/31 04:18:48;;;;;;;;;5.00;5.00;;;;;15.42;46.73;100880.50;6308947;22;46034;-76
2022/05/31 04:21:17;;;;;;;;;9.00;9.00;;;;;15.37;46.98;100877.06;6309126;22;45224;-76
2022/05/31 04:23:59;;;;;;;;;6.25;6.25;;;;;15.32;46.81;100871.88;6309238;22;45208;-76
2022/05/31 04:26:27;;;;;;;;;7.25;6.00;;;;;15.29;47.07;100879.91;6281067;22;45213;-76
2022/05/31 04:28:53;;;;;;;;;6.00;6.00;;;;;15.29;46.70;100881.66;6308605;22;46247;-76
2022/05/31 04:31:19;;;;;;;;;7.00;6.25;;;;;15.27;46.87;100883.50;6280782;22;45439;-76
2022/05/31 04:33:44;;;;;;;;;7.00;7.00;;;;;15.26;47.18;100877.28;6297988;22;45345;-76
2022/05/31 04:36:36;;;;;;;;;7.00;7.00;;;;;15.26;47.42;100879.94;6308813;22;45479;-76
2022/05/31 04:39:03;;;;;;;;;7.50;7.50;;;;;15.29;47.28;100887.88;6280362;22;47207;-77
2022/05/31 04:41:29;;;;;;;;;7.75;7.75;;;;;15.29;47.30;100879.00;6308654;22;45379;-76
2022/05/31 04:43:57;;;;;;;;;7.00;6.25;;;;;15.29;47.36;100876.34;6281243;22;45392;-76
2022/05/31 04:46:25;;;;;;;;;7.50;6.50;;;;;15.30;47.45;100876.34;6308689;22;45342;-76
2022/05/31 04:48:53;;;;;;;;;8.25;8.25;;;;;15.32;47.27;100876.31;6279952;22;47347;-76
2022/05/31 04:51:19;;;;;;;;;5.75;5.75;;;;;15.34;47.64;100880.69;6308435;22;45430;-77
2022/05/31 04:53:44;;;;;;;;;7.25;7.25;;;;;15.38;47.70;100878.84;6309422;22;45345;-76
2022/05/31 04:56:13;;;;;;;;;7.50;6.50;;;;;15.43;47.79;100884.91;6309761;22;45489;-77
2022/05/31 04:58:39;;;;;;;;;8.25;8.25;;;;;15.47;47.64;100880.41;6281725;22;47314;-76
2022/05/31 05:01:06;;;;;;;;;7.00;6.25;;;;;15.48;47.97;100890.13;6281699;22;45206;-78
2022/05/31 05:03:37;;;;;;;;;7.25;6.50;;;;;15.51;47.51;100892.72;6308725;22;45169;-77
2022/05/31 05:06:08;;;;;;;;;7.75;7.00;;;;;15.50;47.36;100893.59;6309395;22;45196;-77
2022/05/31 05:08:38;;;;;;;;;6.25;6.25;;;;;15.49;47.67;100902.47;6309868;22;46352;-77
2022/05/31 05:11:07;;;;;;;;;5.25;5.25;;;;;15.47;47.19;100901.63;6308052;22;45170;-78
2022/05/31 05:13:54;;;;;;;;;6.00;6.00;;;;;15.41;47.40;100903.50;6310194;22;45381;-77
2022/05/31 05:16:20;;;;;;;;;8.50;6.25;;;;;15.38;47.31;100892.97;6309750;22;45384;-77
2022/05/31 05:18:45;;;;;;;;;7.75;7.00;;;;;15.37;46.98;100898.28;6309653;22;46365;-78
2022/05/31 05:21:13;;;;;;;;;9.00;8.00;;;;;15.37;47.47;100898.28;6281485;22;45422;-76
2022/05/31 05:23:38;;;;;;;;;8.75;5.50;;;;;15.39;47.40;100896.50;6310002;22;45196;-76
2022/05/31 05:26:05;;;;;;;;;7.50;7.50;;;;;15.43;47.12;100899.06;6310116;22;45273;-75
2022/05/31 05:31:27;;;;;;;;;5.00;5.00;;;;;15.53;46.91;100899.75;6309937;22;45102;-76
2022/05/31 05:33:54;;;;;;;;;6.50;6.50;;;;;15.57;46.90;100905.84;6309368;22;45117;-76
2022/05/31 05:36:20;;;;;;;;;8.00;8.00;;;;;15.62;46.66;100904.84;6309725;22;45259;-76
2022/05/31 05:38:46;;;;;;;;;5.25;5.25;;;;;15.68;46.55;100902.94;6281486;22;48135;-76
2022/05/31 05:41:13;;;;;;;;;5.75;5.50;;;;;15.72;46.76;100897.59;6309944;22;45334;-78
2022/05/31 05:43:40;;;;;;;;;7.25;6.50;;;;;15.81;46.49;100907.13;6281994;22;45224;-77
2022/05/31 05:46:32;;;;;;;;;9.00;6.75;;;;;15.87;46.61;100915.78;6309785;22;45176;-77
2022/05/31 05:48:57;;;;;;;;;8.75;7.50;;;;;15.93;46.31;100917.47;6280465;22;47969;-78
2022/05/31 05:51:29;;;;;;;;;7.00;5.00;;;;;16.00;46.25;100920.84;6309318;22;45378;-77
2022/05/31 05:53:55;;;;;;;;;7.75;6.75;;;;;16.05;46.14;100925.13;6309809;22;45385;-77
2022/05/31 05:56:22;;;;;;;;;6.00;5.00;;;;;16.09;46.10;100928.56;6309599;22;45362;-77
2022/05/31 05:58:48;;;;;;;;;8.50;7.50;;;;;16.10;45.93;100928.56;6309825;22;46477;-77
2022/05/31 06:01:31;;;;;;;;;6.00;6.00;;;;;16.09;45.65;100928.56;6309302;22;45517;-78
2022/05/31 06:04:11;;;;;;;;;6.25;6.00;;;;;16.08;45.89;100932.16;6307734;22;45283;-78
2022/05/31 06:06:40;;;;;;;;;10.00;8.25;;;;;16.05;45.71;100929.56;6308835;22;45220;-78
2022/05/31 06:09:11;;;;;;;;;9.00;8.00;;;;;16.04;45.63;100928.69;6309495;22;46691;-78
2022/05/31 06:12:00;;;;;;;;;8.00;7.00;;;;;16.01;45.86;100931.44;6280621;22;45361;-78
2022/05/31 06:14:37;;;;;;;;;5.75;5.75;;;;;16.00;45.79;100928.81;6309698;22;45375;-77
2022/05/31 06:17:11;;;;;;;;;8.25;8.00;;;;;16.01;45.93;100931.44;6309685;22;45364;-77
2022/05/31 06:19:39;;;;;;;;;7.50;6.50;;;;;16.05;46.25;100930.44;6309390;22;45612;-78
2022/05/31 06:22:06;;;;;;;;;6.00;6.00;;;;;16.13;45.78;100940.03;6281098;22;45288;-77
2022/05/31 06:24:34;;;;;;;;;7.50;6.50;;;;;16.19;45.67;100939.88;6309536;22;45075;-77
2022/05/31 06:27:00;;;;;;;;;8.00;8.00;;;;;16.20;45.85;100939.84;6308919;22;45379;-77
2022/05/31 06:29:31;;;;;;;;;9.00;8.00;;;;;16.26;45.92;100938.81;6310093;22;46728;-77
2022/05/31 06:31:57;;;;;;;;;8.75;8.75;;;;;16.32;46.05;100943.97;6309625;22;45147;-76
2022/05/31 06:34:23;;;;;;;;;8.75;8.75;;;;;16.41;46.44;100946.44;6309795;22;45112;-77
2022/05/31 06:36:49;;;;;;;;;9.50;9.00;;;;;16.48;46.17;100941.81;6309132;22;45358;-76
2022/05/31 06:39:15;;;;;;;;;7.75;7.75;;;;;16.55;46.78;100940.75;6309625;22;45442;-76
2022/05/31 06:41:40;;;;;;;;;9.00;9.00;;;;;16.61;46.38;100939.72;6281012;22;45413;-77
2022/05/31 06:44:06;;;;;;;;;7.25;7.25;;;;;16.65;46.37;100944.94;6309774;22;45350;-76
2022/05/31 06:46:31;;;;;;;;;8.25;6.50;;;;;16.67;46.08;100943.09;6307450;22;45543;-78
2022/05/31 06:48:59;;;;;;;;;7.00;6.75;;;;;16.70;46.00;100947.44;6281220;22;47212;-78
2022/05/31 06:56:58;;;;;;;;;5.50;5.50;;;;;16.74;44.78;100949.13;6309154;22;45354;-78
2022/05/31 06:59:23;;;;;;;;;7.00;5.75;;;;;16.74;44.82;100942.03;6309494;22;45967;-75
2022/05/31 07:01:53;;;;;;;;;7.75;6.00;;;;;16.76;44.64;100940.22;6280615;22;45405;-77
2022/05/31 07:04:18;;;;;;;;;5.25;5.25;;;;;16.79;44.21;100949.06;6276961;22;45366;-76
2022/05/31 07:06:44;;;;;;;;;3.00;3.00;;;;;16.80;43.70;100941.03;6279862;22;45615;-76
2022/05/31 07:09:10;;;;;;;;;3.50;3.50;;;;;16.83;43.63;100943.59;6309502;22;46477;-76
2022/05/31 07:11:35;;;;;;;;;4.00;4.00;;;;;16.86;43.74;100943.50;6281402;22;45255;-76
2022/05/31 07:14:01;;;;;;;;;4.75;4.75;;;;;16.89;43.48;100942.56;6281609;22;45212;-76
2022/05/31 07:16:27;;;;;;;;;7.75;5.25;;;;;16.95;43.52;100947.72;6309482;22;45106;-76
2022/05/31 07:18:55;;;;;;;;;6.50;4.25;;;;;17.01;43.29;100942.25;6308723;22;45493;-76
2022/05/31 07:21:20;;;;;;;;;6.50;6.00;;;;;17.11;43.38;100942.88;6308833;22;45371;-76
2022/05/31 07:23:46;;;;;;;;;4.50;4.25;;;;;17.19;43.30;100948.84;6307068;22;45288;-76
2022/05/31 07:26:12;;;;;;;;;5.25;4.00;;;;;17.25;42.96;100947.81;6309267;22;45437;-76
2022/05/31 07:28:38;;;;;;;;;5.00;5.00;;;;;17.27;42.72;100946.84;6309076;22;46025;-76
2022/05/31 07:31:04;;;;;;;;;10.00;8.50;;;;;17.30;42.58;100946.75;6309393;22;45130;-76
2022/05/31 07:33:29;;;;;;;;;7.50;6.50;;;;;17.32;42.60;100942.28;6281245;22;45321;-76
2022/05/31 07:35:55;;;;;;;;;5.25;5.25;;;;;17.37;42.61;100947.44;6308872;22;45163;-77
2022/05/31 07:38:20;;;;;;;;;6.25;6.25;;;;;17.46;42.68;100943.66;6309096;22;45211;-78
2022/05/31 07:40:47;;;;;;;;;5.00;5.00;;;;;17.53;42.45;100947.88;6280479;22;45213;-77
2022/05/31 07:43:13;;;;;;;;;5.00;4.50;;;;;17.61;42.05;100952.06;6309280;22;45184;-77
2022/05/31 07:45:39;;;;;;;;;5.00;5.00;;;;;17.72;42.03;100941.09;6309260;22;45351;-77
2022/05/31 07:48:06;;;;;;;;;7.00;7.00;;;;;17.84;41.60;100940.75;6308852;22;45349;-77
2022/05/31 07:50:31;;;;;;;;;4.25;3.50;;;;;17.93;41.54;100949.38;6278804;22;45441;-77
2022/05/31 07:52:59;;;;;;;;;4.50;3.25;;;;;18.00;41.33;100942.94;6308121;22;45640;-77
2022/05/31 07:55:28;;;;;;;;;6.50;6.00;;;;;18.08;40.79;100954.22;6281170;22;45464;-78
2022/05/31 08:00:39;;;;;;;;;5.25;4.75;;;;;18.21;40.43;100947.59;6308276;22;45441;-78
2022/05/31 08:03:05;;;;;;;;;4.00;4.00;;;;;18.26;40.58;100953.66;6308720;22;45321;-78
2022/05/31 08:05:31;;;;;;;;;5.25;3.50;;;;;18.30;40.16;100954.41;6309057;22;45334;-78
2022/05/31 08:07:57;;;;;;;;;4.00;4.00;;;;;18.29;39.77;100952.69;6280389;22;46764;-78
2022/05/31 08:10:23;;;;;;;;;4.00;4.00;;;;;18.28;39.64;100942.91;6309102;22;45369;-77
2022/05/31 08:12:49;;;;;;;;;3.67;2.67;;;;;18.27;40.09;100951.84;6309412;22;45236;-77
2022/05/31 08:15:15;;;;;;;;;3.00;2.25;;;;;18.28;39.90;100951.81;6308746;22;45491;-78
2022/05/31 08:17:42;;;;;;;;;3.50;3.25;;;;;18.30;40.00;100946.41;6308484;22;45236;-78
2022/05/31 08:20:09;;;;;;;;;5.00;4.00;;;;;18.34;40.05;100948.06;6280646;22;45227;-77
2022/05/31 08:22:35;;;;;;;;;4.75;3.25;;;;;18.39;40.27;100945.22;6308278;22;45401;-78
2022/05/31 08:25:02;;;;;;;;;5.25;5.25;;;;;18.45;40.40;100945.06;6308551;22;45459;-74
2022/05/31 08:27:28;;;;;;;;;6.00;4.67;;;;;18.49;39.89;100946.69;6308383;22;46032;-77
2022/05/31 08:29:53;;;;;;;;;4.25;4.25;;;;;18.53;39.12;100943.00;6309881;22;45306;-78
2022/05/31 08:32:19;;;;;;;;;4.50;3.50;;;;;18.57;39.53;100941.09;6310151;22;45562;-77
2022/05/31 08:34:44;;;;;;;;;3.67;3.67;;;;;18.60;39.28;100943.66;6307901;22;45696;-77
2022/05/31 08:37:10;;;;;;;;;3.33;3.33;;;;;18.63;39.16;100946.22;6310074;22;45803;-77
2022/05/31 08:39:36;;;;;;;;;4.25;3.50;;;;;18.67;39.39;100940.72;6309834;22;45189;-78
2022/05/31 08:42:10;;;;;;;;;2.67;2.67;;;;;18.74;38.78;100936.06;6281725;22;45173;-78
2022/05/31 08:44:42;;;;;;;;;6.00;5.00;;;;;18.78;38.97;100939.53;6310052;22;45156;-78
2022/05/31 08:47:42;;;;;;;;;3.25;3.25;;;;;18.82;38.85;100941.16;6309849;22;45411;-78
2022/05/31 08:53:31;;;;;;;;;4.33;3.00;;;;;18.98;38.96;100937.03;6309768;22;45251;-78
2022/05/31 08:59:06;;;;;;;;;3.00;3.00;;;;;19.06;38.34;100936.75;6300511;22;45538;-78
2022/05/31 09:01:41;;;;;;;;;4.00;3.00;;;;;19.13;37.91;100939.13;6309276;22;45361;-78
2022/05/31 09:04:20;;;;;;;;;4.67;2.67;;;;;19.19;38.04;100938.03;6281383;22;45482;-78
2022/05/31 09:07:08;;;;;;;;;3.33;3.33;;;;;19.28;37.03;100932.38;6281294;22;45515;-78
2022/05/31 09:09:42;;;;;;;;;2.00;2.00;;;;;19.32;37.10;100936.66;6285315;22;47306;-78
2022/05/31 09:12:41;;;;;;;;;1.67;1.67;;;;;19.37;35.95;100941.84;6309886;22;45207;-78
2022/05/31 09:15:23;;;;;;;;;2.67;2.33;;;;;19.41;35.79;100939.94;6309684;22;45414;-78
2022/05/31 09:18:15;;;;;;;;;3.00;3.00;;;;;19.45;35.74;100937.09;6280908;22;45467;-78
2022/05/31 09:20:56;;;;;;;;;2.67;2.67;;;;;19.55;35.61;100938.50;6280658;22;48857;-79
2022/05/31 09:23:24;;;;;;;;;2.00;2.00;;;;;19.65;35.74;100938.16;6309891;22;45457;-77
2022/05/31 09:26:04;;;;;;;;;2.00;2.00;;;;;19.75;35.58;100945.78;6309036;22;45303;-77
2022/05/31 09:28:40;;;;;;;;;2.33;1.67;;;;;19.87;35.38;100948.91;6309068;22;45848;-76
2022/05/31 09:31:17;;;;;;;;;3.00;3.00;;;;;19.97;34.71;100950.28;6309050;22;46018;-77
2022/05/31 09:34:08;;;;;;;;;2.33;2.33;;;;;20.08;34.52;100942.72;6308412;22;45172;-77
2022/05/31 09:36:59;;;;;;;;;2.00;2.00;;;;;20.21;34.55;100943.97;6280156;22;45181;-77
2022/05/31 09:39:43;;;;;;;;;3.00;2.00;;;;;20.34;34.62;100943.44;6308032;22;45150;-77
2022/05/31 09:43:00;;;;;;;;;4.00;2.00;;;;;20.49;34.51;100937.47;6308521;22;45586;-77
2022/05/31 09:45:29;;;;;;;;;2.00;2.00;;;;;20.74;34.03;100934.63;6246128;22;45247;-78
2022/05/31 09:47:58;;;;;;;;;3.00;3.00;;;;;20.94;33.52;100931.13;6309175;22;45375;-78
2022/05/31 09:50:25;;;;;;;;;4.33;2.33;;;;;21.18;33.50;100931.84;6306815;22;45250;-79
2022/05/31 09:59:49;;;;;;;;;3.00;3.00;;;;;21.74;32.98;100927.53;6309129;22;45425;-78
2022/05/31 10:02:20;;;;;;;;;2.67;1.67;;;;;21.77;32.20;100925.56;6265372;22;45263;-78
2022/05/31 10:04:50;;;;;;;;;2.00;2.00;;;;;21.80;31.97;100927.22;6247905;22;46854;-85
2022/05/31 10:07:36;;;;;;;;;3.00;3.00;;;;;21.84;32.04;100933.28;6248963;22;45357;-84
2022/05/31 10:10:15;;;;;;;;;2.00;2.00;;;;;21.80;31.82;100932.56;6275073;22;45358;-80
2022/05/31 10:13:03;;;;;;;;;2.00;1.00;;;;;21.77;31.19;100930.91;6247321;22;45269;-88
2022/05/31 10:15:56;;;;;;;;;1.00;1.00;;;;;21.75;31.02;100937.28;6246374;22;47365;-87
2022/05/31 10:18:30;;;;;;;;;2.33;2.00;;;;;21.73;30.79;100944.53;6251684;22;45512;-84
2022/05/31 10:21:05;;;;;;;;;2.00;2.00;;;;;21.69;30.68;100935.78;6249616;22;45370;-86
2022/05/31 10:23:38;;;;;;;;;3.00;2.67;;;;;21.71;30.98;100939.25;6273958;22;45303;-83
2022/05/31 10:26:04;;;;;;;;;2.00;2.00;;;;;21.70;30.38;100939.31;6274481;22;46970;-88
2022/05/31 10:28:41;;;;;;;;;2.33;2.33;;;;;21.70;29.87;100940.19;6275432;22;45533;-85
2022/05/31 10:31:20;;;;;;;;;2.00;2.00;;;;;21.70;30.21;100933.94;6273277;22;45553;-85
2022/05/31 10:33:58;;;;;;;;;3.67;3.00;;;;;21.70;29.94;100936.63;6246171;22;45450;-84
2022/05/31 10:36:30;;;;;;;;;2.00;2.00;;;;;21.67;29.89;100934.97;6252626;22;47906;-85
2022/05/31 10:39:07;;;;;;;;;2.33;2.00;;;;;21.65;30.31;100942.22;6250557;22;45320;-80
2022/05/31 10:41:34;;;;;;;;;3.00;3.00;;;;;21.60;30.40;100930.84;6251687;22;45440;-88
2022/05/31 10:44:21;;;;;;;;;2.00;2.00;;;;;21.63;30.99;100937.88;6277068;22;45496;-82
2022/05/31 10:46:51;;;;;;;;;2.67;2.67;;;;;21.64;30.63;100931.56;6246772;22;48167;-81
2022/05/31 10:49:20;;;;;;;;;1.00;1.00;;;;;21.67;30.35;100934.09;6247611;22;45416;-84
2022/05/31 10:51:58;;;;;;;;;1.67;1.67;;;;;21.78;29.75;100938.03;6247693;22;45716;-84
2022/05/31 10:54:45;;;;;;;;;2.00;2.00;;;;;21.94;29.36;100937.28;6254767;22;45325;-88
2022/05/31 10:57:32;;;;;;;;;2.00;2.00;;;;;22.13;28.91;100927.41;6253609;22;47209;-84
2022/05/31 11:00:17;;;;;;;;;2.00;2.00;;;;;22.29;29.05;100922.16;6250416;22;45371;-83
2022/05/31 11:03:07;;;;;;;;;3.00;2.00;;;;;22.50;29.02;100928.28;6306236;22;45363;-82
2022/05/31 11:06:10;;;;;;;;;1.00;1.00;;;;;22.63;28.37;100933.91;6306958;22;46141;-82
2022/05/31 11:12:10;;;;;;;;;2.33;2.00;;;;;22.72;28.24;100929.88;6309898;22;45339;-81
2022/05/31 11:15:01;;;;;;;;;;;;;;;;;;;;;
2022/05/31 11:17:46;;;;;;;;;4.00;3.00;;;;;22.64;28.61;100936.53;6307596;22;72705;-86
2022/05/31 11:20:15;;;;;;;;;0.00;0.00;;;;;22.54;28.28;100926.34;6306950;22;46189;-87
2022/05/31 11:23:03;;;;;;;;;3.00;3.00;;;;;22.54;28.33;100931.69;6279584;22;45466;-87
2022/05/31 11:25:31;;;;;;;;;2.33;2.33;;;;;22.61;28.62;100925.94;6309061;22;45372;-86
2022/05/31 11:28:35;;;;;;;;;3.00;3.00;;;;;22.70;28.27;100927.28;6307138;22;45542;-84
2022/05/31 11:31:30;;;;;;;;;0.33;0.33;;;;;22.72;27.36;100930.75;6289144;22;46881;-84
2022/05/31 11:34:26;;;;;;;;;3.00;1.67;;;;;22.72;27.54;100935.25;6307244;22;45489;-88
2022/05/31 11:37:09;;;;;;;;;2.00;2.00;;;;;22.77;26.84;100936.72;6284726;22;45272;-90
2022/05/31 11:40:03;;;;;;;;;2.67;2.00;;;;;22.92;27.28;100936.91;6279409;22;45240;-90
2022/05/31 11:43:03;;;;;;;;;1.00;1.00;;;;;23.06;27.08;100940.63;6278577;22;48072;-88
2022/05/31 11:45:46;;;;;;;;;1.67;1.67;;;;;23.14;27.05;100931.31;6278464;22;45755;-90
2022/05/31 11:48:47;;;;;;;;;2.00;1.00;;;;;23.24;26.84;100930.72;6283889;22;45512;-88
2022/05/31 11:51:37;;;;;;;;;1.33;1.00;;;;;23.45;27.08;100941.28;6308009;22;45407;-85
2022/05/31 11:55:25;;;;;;;;;2.00;2.00;;;;;23.74;27.08;100935.19;6283462;22;47949;-94
2022/05/31 11:57:59;;;;;;;;;1.67;1.67;;;;;24.03;26.25;100921.94;6307580;22;45480;-93
2022/05/31 12:00:32;;;;;;;;;2.00;2.00;;;;;24.23;26.16;100926.16;6284469;22;45513;-94
2022/05/31 12:03:22;;;;;;;;;2.00;2.00;;;;;24.34;25.99;100930.91;6284485;22;45432;-93
2022/05/31 12:06:14;;;;;;;;;3.00;3.00;;;;;24.34;25.68;100923.69;6311318;22;46083;-95
2022/05/31 12:08:51;;;;;;;;;1.00;1.00;;;;;24.24;25.78;100932.41;6289113;22;45511;-93
2022/05/31 12:11:34;;;;;;;;;1.67;1.67;;;;;24.18;26.05;100920.19;6289172;22;44740;-92
2022/05/31 12:14:01;;;;;;;;;2.00;1.00;;;;;24.20;26.13;100924.50;6305909;22;45518;-91
2022/05/31 12:16:28;;;;;;;;;1.00;1.00;;;;;24.21;26.33;100920.00;6307759;22;46824;-90
2022/05/31 12:19:13;;;;;;;;;2.00;2.00;;;;;24.17;26.39;100921.13;6280819;22;45372;-92